createdAt,value
2019-05-02T00:00:55.668Z,7.81
2019-05-02T00:01:55.669Z,7.79
2019-05-02T00:02:59.787Z,7.82
2019-05-02T00:03:55.653Z,7.81
2019-05-02T00:04:56.991Z,7.82
2019-05-02T00:05:55.616Z,7.82
2019-05-02T00:06:55.631Z,7.84
2019-05-02T00:07:58.531Z,7.86
2019-05-02T00:08:56.519Z,7.88
2019-05-02T00:09:55.586Z,7.91
2019-05-02T00:10:55.564Z,7.92
2019-05-02T00:11:58.918Z,7.95
2019-05-02T00:12:55.541Z,7.94
2019-05-02T00:13:55.555Z,7.99
2019-05-02T00:14:56.510Z,8.00
2019-05-02T00:15:56.510Z,7.99
2019-05-02T00:16:55.492Z,8.00
2019-05-02T00:17:56.850Z,8.00
2019-05-02T00:18:56.486Z,7.99
2019-05-02T00:19:55.481Z,8.00
2019-05-02T00:20:57.123Z,8.00
2019-05-02T00:21:56.440Z,8.02
2019-05-02T00:22:55.430Z,8.04
2019-05-02T00:23:59.162Z,8.06
2019-05-02T00:24:56.418Z,8.03
2019-05-02T00:25:55.439Z,8.04
2019-05-02T00:26:55.984Z,8.06
2019-05-02T00:27:56.376Z,8.06
2019-05-02T00:28:55.368Z,8.03
2019-05-02T00:29:58.825Z,8.04
2019-05-02T00:30:56.356Z,8.03
2019-05-02T00:31:55.346Z,8.03
2019-05-02T00:32:58.299Z,8.04
2019-05-02T00:33:55.314Z,8.02
2019-05-02T00:34:55.302Z,8.03
2019-05-02T00:35:55.303Z,8.04
2019-05-02T00:36:55.284Z,8.04
2019-05-02T00:37:57.479Z,8.04
2019-05-02T00:38:56.271Z,8.02
2019-05-02T00:39:55.264Z,8.02
2019-05-02T00:40:57.395Z,8.03
2019-05-02T00:41:56.231Z,8.00
2019-05-02T00:42:58.317Z,8.02
2019-05-02T00:43:55.211Z,7.99
2019-05-02T00:44:55.190Z,7.96
2019-05-02T00:45:59.731Z,7.95
2019-05-02T00:46:56.168Z,7.95
2019-05-02T00:47:55.176Z,7.94
2019-05-02T00:48:59.933Z,7.91
2019-05-02T00:49:56.146Z,7.88
2019-05-02T00:50:55.127Z,7.84
2019-05-02T00:51:56.627Z,7.82
2019-05-02T00:52:56.105Z,7.81
2019-05-02T00:53:55.100Z,7.81
2019-05-02T00:54:58.740Z,7.81
2019-05-02T00:55:55.084Z,7.79
2019-05-02T00:56:55.076Z,7.77
2019-05-02T00:57:55.763Z,7.71
2019-05-02T00:58:55.043Z,7.69
2019-05-02T00:59:55.033Z,7.71
2019-05-02T01:00:55.035Z,7.67
2019-05-02T01:01:55.013Z,7.67
2019-05-02T01:02:55.003Z,7.66
2019-05-02T01:03:54.991Z,7.66
2019-05-02T01:04:59.292Z,7.63
2019-05-02T01:05:55.999Z,7.62
2019-05-02T01:06:54.960Z,7.63
2019-05-02T01:07:56.037Z,7.60
2019-05-02T01:08:55.938Z,7.62
2019-05-02T01:09:54.929Z,7.60
2019-05-02T01:10:56.812Z,7.62
2019-05-02T01:11:54.921Z,7.58
2019-05-02T01:12:54.907Z,7.57
2019-05-02T01:13:55.659Z,7.57
2019-05-02T01:14:54.866Z,7.55
2019-05-02T01:15:54.863Z,7.54
2019-05-02T01:16:56.274Z,7.52
2019-05-02T01:17:54.852Z,7.52
2019-05-02T01:18:54.834Z,7.51
2019-05-02T01:19:54.845Z,7.48
2019-05-02T01:20:58.082Z,7.48
2019-05-02T01:21:55.801Z,7.48
2019-05-02T01:22:54.802Z,7.50
2019-05-02T01:23:59.006Z,7.50
2019-05-02T01:24:55.772Z,7.50
2019-05-02T01:25:54.771Z,7.51
2019-05-02T01:26:54.775Z,7.52
2019-05-02T01:27:54.750Z,7.52
2019-05-02T01:28:55.746Z,7.52
2019-05-02T01:29:54.722Z,7.57
2019-05-02T01:30:54.700Z,7.55
2019-05-02T01:31:55.880Z,7.55
2019-05-02T01:32:54.678Z,7.55
2019-05-02T01:33:54.690Z,7.60
2019-05-02T01:34:56.328Z,7.62
2019-05-02T01:35:54.647Z,7.62
2019-05-02T01:36:54.656Z,7.62
2019-05-02T01:37:56.012Z,7.63
2019-05-02T01:38:54.626Z,7.66
2019-05-02T01:39:54.605Z,7.66
2019-05-02T01:40:54.871Z,7.67
2019-05-02T01:41:54.594Z,7.67
2019-05-02T01:42:54.574Z,7.63
2019-05-02T01:43:54.985Z,7.62
2019-05-02T01:44:55.554Z,7.62
2019-05-02T01:45:54.552Z,7.62
2019-05-02T01:46:58.802Z,7.63
2019-05-02T01:47:55.532Z,7.67
2019-05-02T01:48:54.511Z,7.69
2019-05-02T01:49:57.177Z,7.69
2019-05-02T01:50:54.501Z,7.69
2019-05-02T01:51:54.483Z,7.70
2019-05-02T01:52:58.558Z,7.70
2019-05-02T01:53:55.471Z,7.73
2019-05-02T01:54:54.448Z,7.73
2019-05-02T01:55:57.763Z,7.73
2019-05-02T01:56:54.427Z,7.71
2019-05-02T01:57:54.406Z,7.73
2019-05-02T01:58:57.704Z,7.74
2019-05-02T01:59:54.407Z,7.73
2019-05-02T02:00:54.386Z,7.73
2019-05-02T02:01:57.915Z,7.73
2019-05-02T02:02:54.888Z,7.73
2019-05-02T02:03:54.354Z,7.73
2019-05-02T02:04:56.842Z,7.71
2019-05-02T02:05:54.327Z,7.70
2019-05-02T02:06:54.325Z,7.70
2019-05-02T02:07:55.477Z,7.71
2019-05-02T02:08:54.304Z,7.73
2019-05-02T02:09:54.315Z,7.71
2019-05-02T02:10:56.122Z,7.73
2019-05-02T02:11:54.285Z,7.74
2019-05-02T02:13:03.359Z,7.74
2019-05-02T02:13:55.253Z,7.74
2019-05-02T02:14:55.538Z,7.76
2019-05-02T02:15:54.228Z,7.74
2019-05-02T02:16:54.223Z,7.74
2019-05-02T02:17:54.198Z,7.73
2019-05-02T02:18:54.199Z,7.74
2019-05-02T02:19:54.177Z,7.73
2019-05-02T02:20:54.177Z,7.74
2019-05-02T02:21:57.511Z,7.73
2019-05-02T02:22:55.146Z,7.70
2019-05-02T02:23:54.135Z,7.71
2019-05-02T02:24:56.024Z,7.69
2019-05-02T02:25:55.114Z,7.67
2019-05-02T02:26:54.114Z,7.70
2019-05-02T02:27:55.010Z,7.66
2019-05-02T02:28:55.084Z,7.63
2019-05-02T02:29:54.306Z,7.63
2019-05-02T02:30:57.798Z,7.63
2019-05-02T02:31:55.052Z,7.63
2019-05-02T02:33:00.539Z,7.63
2019-05-02T02:33:55.045Z,7.63
2019-05-02T02:34:54.020Z,7.63
2019-05-02T02:35:54.059Z,7.62
2019-05-02T02:36:54.021Z,7.60
2019-05-02T02:37:55.693Z,7.58
2019-05-02T02:38:53.988Z,7.58
2019-05-02T02:39:56.300Z,7.57
2019-05-02T02:40:53.950Z,7.60
2019-05-02T02:41:54.262Z,7.57
2019-05-02T02:42:53.946Z,7.57
2019-05-02T02:43:54.642Z,7.58
2019-05-02T02:44:54.907Z,7.57
2019-05-02T02:45:57.796Z,7.58
2019-05-02T02:46:54.896Z,7.58
2019-05-02T02:47:59.851Z,7.58
2019-05-02T02:48:54.906Z,7.58
2019-05-02T02:49:55.880Z,7.62
2019-05-02T02:50:54.854Z,7.60
2019-05-02T02:51:58.120Z,7.63
2019-05-02T02:52:54.845Z,7.63
2019-05-02T02:54:02.879Z,7.66
2019-05-02T02:54:54.814Z,7.67
2019-05-02T02:56:00.803Z,7.67
2019-05-02T02:56:54.785Z,7.69
2019-05-02T02:57:58.345Z,7.67
2019-05-02T02:58:54.772Z,7.67
2019-05-02T03:00:06.709Z,7.67
2019-05-02T03:00:54.746Z,7.69
2019-05-02T03:01:53.729Z,7.67
2019-05-02T03:02:53.719Z,7.67
2019-05-02T03:03:53.719Z,7.63
2019-05-02T03:04:53.710Z,7.62
2019-05-02T03:05:58.830Z,7.62
2019-05-02T03:06:54.679Z,7.62
2019-05-02T03:07:59.334Z,7.62
2019-05-02T03:08:54.671Z,7.63
2019-05-02T03:09:59.753Z,7.63
2019-05-02T03:10:54.626Z,7.67
2019-05-02T03:11:56.297Z,7.67
2019-05-02T03:12:54.605Z,7.69
2019-05-02T03:13:59.775Z,7.69
2019-05-02T03:14:54.584Z,7.67
2019-05-02T03:15:53.625Z,7.70
2019-05-02T03:16:53.573Z,7.67
2019-05-02T03:17:53.562Z,7.66
2019-05-02T03:18:53.543Z,7.66
2019-05-02T03:19:54.289Z,7.63
2019-05-02T03:20:54.550Z,7.63
2019-05-02T03:21:54.574Z,7.62
2019-05-02T03:22:54.507Z,7.60
2019-05-02T03:24:01.355Z,7.57
2019-05-02T03:24:54.479Z,7.55
2019-05-02T03:25:53.469Z,7.54
2019-05-02T03:26:55.145Z,7.55
2019-05-02T03:27:53.459Z,7.54
2019-05-02T03:28:58.493Z,7.52
2019-05-02T03:29:54.435Z,7.52
2019-05-02T03:30:53.418Z,7.50
2019-05-02T03:32:11.751Z,7.50
2019-05-02T03:33:06.523Z,7.48
2019-05-02T03:34:00.250Z,7.48
2019-05-02T03:34:54.548Z,7.50
2019-05-02T03:35:53.388Z,7.48
2019-05-02T03:36:53.373Z,7.45
2019-05-02T03:37:53.343Z,7.47
2019-05-02T03:38:53.331Z,7.44
2019-05-02T03:39:57.413Z,7.41
2019-05-02T03:40:53.312Z,7.39
2019-05-02T03:41:55.636Z,7.37
2019-05-02T03:42:54.290Z,7.34
2019-05-02T03:44:09.888Z,7.36
2019-05-02T03:44:56.397Z,7.33
2019-05-02T03:45:54.283Z,7.33
2019-05-02T03:46:54.406Z,7.33
2019-05-02T03:47:54.239Z,7.33
2019-05-02T03:49:05.499Z,7.34
2019-05-02T03:49:54.211Z,7.34
2019-05-02T03:50:53.210Z,7.33
2019-05-02T03:51:55.761Z,7.36
2019-05-02T03:52:54.200Z,7.37
2019-05-02T03:54:06.239Z,7.37
2019-05-02T03:54:54.158Z,7.39
2019-05-02T03:55:53.166Z,7.39
2019-05-02T03:56:53.461Z,7.41
2019-05-02T03:57:53.155Z,7.41
2019-05-02T03:58:55.910Z,7.41
2019-05-02T03:59:54.134Z,7.41
2019-05-02T04:01:00.769Z,7.39
2019-05-02T04:01:54.086Z,7.39
2019-05-02T04:03:00.097Z,7.37
2019-05-02T04:03:54.073Z,7.39
2019-05-02T04:04:59.952Z,7.41
2019-05-02T04:05:54.052Z,7.41
2019-05-02T04:06:55.038Z,7.42
2019-05-02T04:07:54.020Z,7.44
2019-05-02T04:08:59.218Z,7.45
2019-05-02T04:09:54.030Z,7.47
2019-05-02T04:10:59.391Z,7.48
2019-05-02T04:11:53.977Z,7.48
2019-05-02T04:12:58.272Z,7.48
2019-05-02T04:13:53.958Z,7.50
2019-05-02T04:14:55.530Z,7.48
2019-05-02T04:15:52.948Z,7.48
2019-05-02T04:16:55.175Z,7.48
2019-05-02T04:17:52.914Z,7.47
2019-05-02T04:18:55.677Z,7.45
2019-05-02T04:19:53.910Z,7.44
2019-05-02T04:20:52.881Z,7.44
2019-05-02T04:21:54.958Z,7.44
2019-05-02T04:22:52.863Z,7.41
2019-05-02T04:23:52.864Z,7.39
2019-05-02T04:24:54.893Z,7.39
2019-05-02T04:25:52.848Z,7.41
2019-05-02T04:26:56.053Z,7.41
2019-05-02T04:27:52.814Z,7.42
2019-05-02T04:28:53.787Z,7.42
2019-05-02T04:29:52.788Z,7.42
2019-05-02T04:30:53.982Z,7.44
2019-05-02T04:31:52.769Z,7.44
2019-05-02T04:32:55.821Z,7.45
2019-05-02T04:33:52.739Z,7.47
2019-05-02T04:34:55.643Z,7.48
2019-05-02T04:35:53.724Z,7.50
2019-05-02T04:37:00.769Z,7.48
2019-05-02T04:37:53.706Z,7.50
2019-05-02T04:38:52.958Z,7.48
2019-05-02T04:39:53.790Z,7.50
2019-05-02T04:40:53.665Z,7.52
2019-05-02T04:41:52.685Z,7.54
2019-05-02T04:43:02.092Z,7.55
2019-05-02T04:43:57.513Z,7.57
2019-05-02T04:45:14.042Z,7.60
2019-05-02T04:45:57.228Z,7.60
2019-05-02T04:46:59.966Z,7.60
2019-05-02T04:47:58.467Z,7.62
2019-05-02T04:48:53.581Z,7.62
2019-05-02T04:49:52.570Z,7.60
2019-05-02T04:50:59.449Z,7.58
2019-05-02T04:52:03.961Z,7.62
2019-05-02T04:52:54.110Z,7.63
2019-05-02T04:53:52.531Z,7.63
2019-05-02T04:54:52.519Z,7.63
2019-05-02T04:56:03.492Z,7.66
2019-05-02T04:56:55.439Z,7.66
2019-05-02T04:57:52.481Z,7.63
2019-05-02T04:58:52.478Z,7.67
2019-05-02T05:00:05.064Z,7.67
2019-05-02T05:00:58.068Z,7.69
2019-05-02T05:01:57.556Z,7.69
2019-05-02T05:02:53.441Z,7.73
2019-05-02T05:03:58.143Z,7.70
2019-05-02T05:04:53.434Z,7.71
2019-05-02T05:05:52.398Z,7.74
2019-05-02T05:06:55.886Z,7.74
2019-05-02T05:07:53.373Z,7.76
2019-05-02T05:08:52.371Z,7.77
2019-05-02T05:09:58.328Z,7.77
2019-05-02T05:10:53.352Z,7.79
2019-05-02T05:11:53.801Z,7.81
2019-05-02T05:12:53.330Z,7.84
2019-05-02T05:13:56.516Z,7.85
2019-05-02T05:14:53.299Z,7.85
2019-05-02T05:15:52.288Z,7.88
2019-05-02T05:16:55.716Z,7.91
2019-05-02T05:17:53.281Z,7.94
2019-05-02T05:18:53.305Z,7.96
2019-05-02T05:19:52.247Z,8.00
2019-05-02T05:20:53.107Z,8.03
2019-05-02T05:21:58.883Z,8.04
2019-05-02T05:22:53.216Z,8.09
2019-05-02T05:23:59.584Z,8.13
2019-05-02T05:24:53.196Z,8.17
2019-05-02T05:25:55.647Z,8.20
2019-05-02T05:26:53.164Z,8.21
2019-05-02T05:27:52.639Z,8.24
2019-05-02T05:28:53.165Z,8.29
2019-05-02T05:29:53.789Z,8.29
2019-05-02T05:30:53.122Z,8.32
2019-05-02T05:31:55.208Z,8.36
2019-05-02T05:32:53.119Z,8.39
2019-05-02T05:33:52.093Z,8.40
2019-05-02T05:34:52.100Z,8.42
2019-05-02T05:35:52.707Z,8.45
2019-05-02T05:36:52.060Z,8.50
2019-05-02T05:37:53.287Z,8.55
2019-05-02T05:38:52.039Z,8.58
2019-05-02T05:39:52.627Z,8.67
2019-05-02T05:40:52.040Z,8.73
2019-05-02T05:41:52.506Z,8.78
2019-05-02T05:42:52.008Z,8.80
2019-05-02T05:43:53.685Z,8.80
2019-05-02T05:44:51.976Z,8.83
2019-05-02T05:47:00.886Z,8.89
2019-05-02T05:48:01.198Z,8.94
2019-05-02T05:49:00.843Z,9.03
2019-05-02T05:50:01.177Z,9.13
2019-05-02T05:51:00.822Z,9.30
2019-05-02T05:52:03.771Z,9.68
2019-05-02T05:53:00.797Z,10.16
2019-05-02T05:54:03.065Z,11.06
2019-05-02T05:55:00.761Z,12.25
2019-05-02T05:56:02.474Z,13.14
2019-05-02T05:57:00.749Z,13.99
2019-05-02T05:58:11.855Z,14.66
2019-05-02T05:59:01.739Z,15.07
2019-05-02T06:00:03.990Z,14.93
2019-05-02T06:01:01.699Z,15.05
2019-05-02T06:02:05.443Z,15.16
2019-05-02T06:03:10.901Z,15.41
2019-05-02T06:04:01.688Z,15.76
2019-05-02T06:05:03.767Z,16.10
2019-05-02T06:06:00.656Z,16.29
2019-05-02T06:07:03.178Z,16.14
2019-05-02T06:08:00.636Z,16.27
2019-05-02T06:09:00.628Z,16.40
2019-05-02T06:10:02.427Z,15.81
2019-05-02T06:11:01.595Z,16.50
2019-05-02T06:12:00.585Z,17.05
2019-05-02T06:13:00.577Z,17.40
2019-05-02T06:14:00.571Z,17.83
2019-05-02T06:15:01.605Z,18.21
2019-05-02T06:16:02.697Z,18.44
2019-05-02T06:17:00.535Z,18.62
2019-05-02T06:18:04.844Z,18.74
2019-05-02T06:19:00.513Z,18.76
2019-05-02T06:20:00.512Z,18.87
2019-05-02T06:21:03.327Z,18.99
2019-05-02T06:22:01.490Z,19.16
2019-05-02T06:23:01.345Z,19.16
2019-05-02T06:24:00.471Z,19.20
2019-05-02T06:25:00.452Z,19.28
2019-05-02T06:26:00.462Z,18.93
2019-05-02T06:27:00.434Z,18.19
2019-05-02T06:28:05.203Z,17.81
2019-05-02T06:29:01.411Z,17.54
2019-05-02T06:30:00.399Z,17.09
2019-05-02T06:31:02.254Z,16.50
2019-05-02T06:32:01.383Z,15.89
2019-05-02T06:33:00.402Z,15.66
2019-05-02T06:34:02.025Z,16.11
2019-05-02T06:35:01.345Z,16.96
2019-05-02T06:36:01.463Z,16.90
2019-05-02T06:37:00.336Z,16.81
2019-05-02T06:38:00.317Z,16.23
2019-05-02T06:39:00.306Z,15.64
2019-05-02T06:40:03.257Z,15.34
2019-05-02T06:41:01.296Z,15.46
2019-05-02T06:42:00.267Z,15.81
2019-05-02T06:43:04.331Z,16.11
2019-05-02T06:44:01.257Z,16.22
2019-05-02T06:45:01.122Z,15.80
2019-05-02T06:46:00.226Z,15.62
2019-05-02T06:47:04.164Z,15.44
2019-05-02T06:48:01.338Z,15.07
2019-05-02T06:49:00.196Z,14.69
2019-05-02T06:50:01.195Z,14.27
2019-05-02T06:51:00.195Z,14.01
2019-05-02T06:52:00.168Z,13.72
2019-05-02T06:53:04.452Z,13.69
2019-05-02T06:54:01.154Z,13.80
2019-05-02T06:55:00.135Z,14.12
2019-05-02T06:56:00.151Z,15.19
2019-05-02T06:57:00.103Z,16.26
2019-05-02T06:58:02.856Z,17.51
2019-05-02T06:59:01.080Z,18.51
2019-05-02T07:00:00.083Z,18.89
2019-05-02T07:01:00.083Z,19.06
2019-05-02T07:02:00.061Z,19.42
2019-05-02T07:03:00.049Z,18.93
2019-05-02T07:04:00.030Z,17.99
2019-05-02T07:05:00.039Z,17.66
2019-05-02T07:06:02.677Z,17.27
2019-05-02T07:07:00.310Z,17.06
2019-05-02T07:08:00.062Z,16.67
2019-05-02T07:09:00.023Z,16.17
2019-05-02T07:09:59.992Z,15.91
2019-05-02T07:11:01.219Z,15.80
2019-05-02T07:12:01.619Z,15.62
2019-05-02T07:13:10.155Z,15.78
2019-05-02T07:14:12.635Z,15.99
2019-05-02T07:15:01.647Z,16.98
2019-05-02T07:15:59.928Z,16.75
2019-05-02T07:16:59.896Z,16.23
2019-05-02T07:17:59.885Z,16.03
2019-05-02T07:18:59.885Z,15.66
2019-05-02T07:20:03.891Z,15.22
2019-05-02T07:21:00.847Z,15.01
2019-05-02T07:22:04.017Z,14.85
2019-05-02T07:22:59.828Z,14.69
2019-05-02T07:23:59.826Z,14.26
2019-05-02T07:25:01.778Z,14.16
2019-05-02T07:26:00.795Z,14.09
2019-05-02T07:27:02.148Z,14.12
2019-05-02T07:27:59.774Z,14.23
2019-05-02T07:28:59.773Z,14.38
2019-05-02T07:29:59.763Z,14.49
2019-05-02T07:30:59.831Z,14.59
2019-05-02T07:31:59.732Z,14.66
2019-05-02T07:33:01.208Z,14.49
2019-05-02T07:33:59.713Z,14.61
2019-05-02T07:34:59.698Z,14.80
2019-05-02T07:36:00.120Z,14.80
2019-05-02T07:36:59.680Z,14.86
2019-05-02T07:37:59.669Z,14.74
2019-05-02T07:39:05.217Z,14.64
2019-05-02T07:40:00.649Z,14.64
2019-05-02T07:40:59.653Z,14.56
2019-05-02T07:42:00.507Z,14.45
2019-05-02T07:43:00.618Z,14.38
2019-05-02T07:43:59.611Z,14.30
2019-05-02T07:44:59.598Z,14.21
2019-05-02T07:45:59.597Z,14.20
2019-05-02T07:47:02.454Z,14.24
2019-05-02T07:48:01.447Z,14.23
2019-05-02T07:48:59.547Z,14.24
2019-05-02T07:49:59.678Z,14.16
2019-05-02T07:50:59.545Z,14.06
2019-05-02T07:51:59.515Z,14.08
2019-05-02T07:52:59.528Z,14.09
2019-05-02T07:53:59.485Z,14.12
2019-05-02T07:55:01.025Z,14.23
2019-05-02T07:55:59.522Z,14.26
2019-05-02T07:57:02.198Z,14.21
2019-05-02T07:58:02.006Z,14.20
2019-05-02T07:59:00.441Z,14.19
2019-05-02T08:00:00.497Z,14.19
2019-05-02T08:00:59.431Z,14.21
2019-05-02T08:01:59.431Z,14.31
2019-05-02T08:02:59.463Z,14.31
2019-05-02T08:04:04.397Z,14.36
2019-05-02T08:04:59.402Z,14.45
2019-05-02T08:05:59.960Z,14.60
2019-05-02T08:06:59.365Z,14.78
2019-05-02T08:07:59.369Z,15.05
2019-05-02T08:09:01.591Z,14.91
2019-05-02T08:10:00.329Z,14.69
2019-05-02T08:11:01.686Z,14.75
2019-05-02T08:11:59.336Z,14.71
2019-05-02T08:12:59.312Z,14.53
2019-05-02T08:14:00.620Z,14.54
2019-05-02T08:15:00.384Z,14.63
2019-05-02T08:15:59.297Z,14.93
2019-05-02T08:17:05.605Z,15.13
2019-05-02T08:18:00.265Z,15.16
2019-05-02T08:19:01.422Z,15.28
2019-05-02T08:20:00.218Z,15.30
2019-05-02T08:21:00.380Z,15.07
2019-05-02T08:21:59.195Z,15.00
2019-05-02T08:22:59.188Z,14.80
2019-05-02T08:24:02.162Z,14.60
2019-05-02T08:24:59.177Z,14.39
2019-05-02T08:25:59.152Z,14.23
2019-05-02T08:26:59.609Z,14.17
2019-05-02T08:27:59.151Z,14.08
2019-05-02T08:28:59.132Z,13.94
2019-05-02T08:30:00.107Z,13.81
2019-05-02T08:30:59.104Z,13.72
2019-05-02T08:31:59.083Z,13.68
2019-05-02T08:32:59.082Z,13.65
2019-05-02T08:33:59.101Z,13.66
2019-05-02T08:34:59.083Z,13.68
2019-05-02T08:35:59.055Z,13.59
2019-05-02T08:37:03.143Z,13.59
2019-05-02T08:38:00.029Z,13.61
2019-05-02T08:38:59.034Z,13.55
2019-05-02T08:39:59.021Z,13.54
2019-05-02T08:40:59.031Z,13.47
2019-05-02T08:41:58.987Z,13.39
2019-05-02T08:43:03.482Z,13.35
2019-05-02T08:43:59.957Z,13.32
2019-05-02T08:45:01.030Z,13.25
2019-05-02T08:45:58.946Z,13.21
2019-05-02T08:46:58.937Z,13.17
2019-05-02T08:48:00.171Z,13.09
2019-05-02T08:48:59.945Z,13.06
2019-05-02T08:49:58.896Z,13.03
2019-05-02T08:50:58.900Z,12.99
2019-05-02T08:51:58.926Z,12.99
2019-05-02T08:52:58.909Z,13.01
2019-05-02T08:53:58.879Z,13.03
2019-05-02T08:54:58.884Z,13.01
2019-05-02T08:55:58.835Z,13.01
2019-05-02T08:57:00.450Z,12.96
2019-05-02T08:57:58.812Z,12.94
2019-05-02T08:58:58.818Z,12.87
2019-05-02T09:00:00.268Z,12.88
2019-05-02T09:00:58.791Z,12.89
2019-05-02T09:01:58.772Z,12.96
2019-05-02T09:03:02.751Z,12.99
2019-05-02T09:03:59.765Z,13.03
2019-05-02T09:04:59.266Z,13.07
2019-05-02T09:06:05.595Z,12.99
2019-05-02T09:07:00.768Z,12.92
2019-05-02T09:07:58.698Z,12.84
2019-05-02T09:08:58.698Z,12.79
2019-05-02T09:10:00.179Z,12.74
2019-05-02T09:10:59.676Z,12.74
2019-05-02T09:12:09.724Z,12.74
2019-05-02T09:12:59.659Z,12.73
2019-05-02T09:13:58.657Z,12.73
2019-05-02T09:14:58.647Z,12.74
2019-05-02T09:15:58.616Z,12.79
2019-05-02T09:17:00.149Z,12.76
2019-05-02T09:17:59.597Z,12.84
2019-05-02T09:18:58.595Z,12.85
2019-05-02T09:20:02.336Z,12.80
2019-05-02T09:20:59.567Z,12.79
2019-05-02T09:21:58.552Z,12.80
2019-05-02T09:22:58.554Z,12.80
2019-05-02T09:23:58.535Z,12.74
2019-05-02T09:24:58.525Z,12.73
2019-05-02T09:25:58.524Z,12.69
2019-05-02T09:26:58.511Z,12.66
2019-05-02T09:27:58.500Z,12.62
2019-05-02T09:29:01.661Z,12.58
2019-05-02T09:29:59.495Z,12.55
2019-05-02T09:31:04.983Z,12.52
2019-05-02T09:31:59.452Z,12.51
2019-05-02T09:33:04.889Z,12.54
2019-05-02T09:33:59.429Z,12.55
2019-05-02T09:35:02.194Z,12.55
2019-05-02T09:35:59.407Z,12.52
2019-05-02T09:36:58.397Z,12.49
2019-05-02T09:37:58.377Z,12.48
2019-05-02T09:38:58.378Z,12.41
2019-05-02T09:39:58.367Z,12.44
2019-05-02T09:40:58.357Z,12.40
2019-05-02T09:41:58.355Z,12.37
2019-05-02T09:43:01.967Z,12.38
2019-05-02T09:43:59.355Z,12.37
2019-05-02T09:44:58.316Z,12.41
2019-05-02T09:45:58.326Z,12.44
2019-05-02T09:46:58.322Z,12.48
2019-05-02T09:48:05.099Z,12.44
2019-05-02T09:49:04.238Z,12.40
2019-05-02T09:49:59.253Z,12.38
2019-05-02T09:50:58.582Z,12.41
2019-05-02T09:52:00.864Z,12.44
2019-05-02T09:52:58.231Z,12.43
2019-05-02T09:54:02.634Z,12.43
2019-05-02T09:54:59.203Z,12.46
2019-05-02T09:55:58.210Z,12.46
2019-05-02T09:56:58.180Z,12.51
2019-05-02T09:57:58.178Z,12.51
2019-05-02T09:59:06.249Z,12.48
2019-05-02T09:59:59.159Z,12.49
2019-05-02T10:00:58.138Z,12.48
2019-05-02T10:01:58.139Z,12.52
2019-05-02T10:02:58.147Z,12.54
2019-05-02T10:03:58.117Z,12.55
2019-05-02T10:04:58.098Z,12.62
2019-05-02T10:05:58.092Z,12.67
2019-05-02T10:06:59.196Z,12.66
2019-05-02T10:08:03.230Z,12.69
2019-05-02T10:08:59.069Z,12.71
2019-05-02T10:10:03.160Z,12.73
2019-05-02T10:10:59.035Z,12.70
2019-05-02T10:11:58.052Z,12.71
2019-05-02T10:12:58.012Z,12.71
2019-05-02T10:13:58.025Z,12.74
2019-05-02T10:14:57.993Z,12.71
2019-05-02T10:15:57.981Z,12.70
2019-05-02T10:17:03.073Z,12.66
2019-05-02T10:18:08.821Z,12.56
2019-05-02T10:19:00.380Z,12.58
2019-05-02T10:19:58.942Z,12.51
2019-05-02T10:20:57.932Z,12.52
2019-05-02T10:21:57.931Z,12.46
2019-05-02T10:22:57.925Z,12.48
2019-05-02T10:23:59.296Z,12.48
2019-05-02T10:24:57.893Z,12.44
2019-05-02T10:25:57.880Z,12.48
2019-05-02T10:27:04.282Z,12.46
2019-05-02T10:27:58.886Z,12.44
2019-05-02T10:28:57.847Z,12.44
2019-05-02T10:30:08.105Z,12.46
2019-05-02T10:30:58.826Z,12.44
2019-05-02T10:31:57.814Z,12.48
2019-05-02T10:32:57.822Z,12.48
2019-05-02T10:33:58.754Z,12.49
2019-05-02T10:34:57.786Z,12.49
2019-05-02T10:35:57.767Z,12.44
2019-05-02T10:36:59.056Z,12.37
2019-05-02T10:37:57.743Z,12.34
2019-05-02T10:38:59.321Z,12.33
2019-05-02T10:39:57.734Z,12.30
2019-05-02T10:41:01.764Z,12.29
2019-05-02T10:41:58.702Z,12.26
2019-05-02T10:42:57.692Z,12.25
2019-05-02T10:43:59.610Z,12.26
2019-05-02T10:44:57.671Z,12.29
2019-05-02T10:45:57.661Z,12.25
2019-05-02T10:46:57.650Z,12.16
2019-05-02T10:47:57.641Z,12.15
2019-05-02T10:48:57.640Z,12.15
2019-05-02T10:49:57.634Z,12.13
2019-05-02T10:50:57.598Z,12.11
2019-05-02T10:51:58.252Z,12.11
2019-05-02T10:52:57.593Z,12.11
2019-05-02T10:53:57.577Z,12.12
2019-05-02T10:54:57.567Z,12.08
2019-05-02T10:55:57.548Z,12.11
2019-05-02T10:56:57.536Z,12.05
2019-05-02T10:57:57.526Z,12.04
2019-05-02T10:58:57.526Z,12.04
2019-05-02T10:59:57.517Z,12.05
2019-05-02T11:00:57.507Z,12.08
2019-05-02T11:01:57.506Z,12.11
2019-05-02T11:02:57.474Z,12.13
2019-05-02T11:03:57.464Z,12.12
2019-05-02T11:04:57.453Z,12.11
2019-05-02T11:05:57.967Z,12.08
2019-05-02T11:06:58.443Z,12.03
2019-05-02T11:08:04.683Z,11.97
2019-05-02T11:08:58.419Z,11.90
2019-05-02T11:10:02.134Z,11.82
2019-05-02T11:10:58.401Z,11.78
2019-05-02T11:11:57.381Z,11.72
2019-05-02T11:12:57.390Z,11.72
2019-05-02T11:14:00.726Z,11.75
2019-05-02T11:14:58.349Z,11.75
2019-05-02T11:15:57.350Z,11.70
2019-05-02T11:16:57.319Z,11.75
2019-05-02T11:17:57.338Z,11.84
2019-05-02T11:18:57.309Z,11.82
2019-05-02T11:19:57.287Z,11.85
2019-05-02T11:20:58.985Z,11.90
2019-05-02T11:21:59.203Z,11.96
2019-05-02T11:22:57.275Z,11.97
2019-05-02T11:23:57.452Z,11.98
2019-05-02T11:24:57.254Z,11.97
2019-05-02T11:25:57.239Z,12.07
2019-05-02T11:26:57.229Z,12.19
2019-05-02T11:28:01.561Z,12.26
2019-05-02T11:28:58.207Z,12.31
2019-05-02T11:29:57.208Z,12.36
2019-05-02T11:31:01.499Z,12.40
2019-05-02T11:31:58.181Z,12.37
2019-05-02T11:32:57.167Z,12.34
2019-05-02T11:33:57.152Z,12.29
2019-05-02T11:34:57.131Z,12.29
2019-05-02T11:35:57.125Z,12.36
2019-05-02T11:36:57.133Z,12.46
2019-05-02T11:37:57.101Z,12.51
2019-05-02T11:39:08.497Z,12.48
2019-05-02T11:40:01.120Z,12.51
2019-05-02T11:40:57.069Z,12.58
2019-05-02T11:41:57.070Z,12.69
2019-05-02T11:43:01.458Z,12.70
2019-05-02T11:43:58.046Z,12.67
2019-05-02T11:44:57.028Z,12.70
2019-05-02T11:46:02.560Z,12.71
2019-05-02T11:46:58.016Z,12.80
2019-05-02T11:48:01.696Z,12.70
2019-05-02T11:48:58.636Z,12.80
2019-05-02T11:49:56.976Z,12.88
2019-05-02T11:50:58.107Z,12.94
2019-05-02T11:51:57.353Z,12.94
2019-05-02T11:52:56.975Z,12.95
2019-05-02T11:53:59.242Z,12.92
2019-05-02T11:54:57.926Z,12.89
2019-05-02T11:55:58.380Z,12.91
2019-05-02T11:56:57.934Z,12.89
2019-05-02T11:58:01.033Z,12.84
2019-05-02T11:58:57.883Z,12.87
2019-05-02T11:59:59.401Z,12.89
2019-05-02T12:00:57.862Z,12.95
2019-05-02T12:01:59.993Z,12.99
2019-05-02T12:02:58.355Z,12.95
2019-05-02T12:03:56.832Z,12.96
2019-05-02T12:04:56.861Z,13.03
2019-05-02T12:05:56.810Z,13.10
2019-05-02T12:07:01.517Z,13.10
2019-05-02T12:08:00.818Z,13.01
2019-05-02T12:08:57.779Z,12.95
2019-05-02T12:09:57.297Z,12.96
2019-05-02T12:10:56.750Z,13.03
2019-05-02T12:11:56.813Z,13.12
2019-05-02T12:12:56.735Z,13.22
2019-05-02T12:13:57.127Z,13.32
2019-05-02T12:14:56.708Z,13.32
2019-05-02T12:15:56.700Z,13.22
2019-05-02T12:16:56.718Z,13.16
2019-05-02T12:17:56.691Z,13.13
2019-05-02T12:19:08.586Z,13.13
2019-05-02T12:19:57.665Z,13.13
2019-05-02T12:20:56.683Z,13.22
2019-05-02T12:21:56.657Z,13.41
2019-05-02T12:22:56.625Z,13.54
2019-05-02T12:23:56.623Z,13.61
2019-05-02T12:24:56.611Z,13.73
2019-05-02T12:25:56.594Z,13.71
2019-05-02T12:26:56.622Z,13.71
2019-05-02T12:27:56.752Z,13.62
2019-05-02T12:28:56.561Z,13.55
2019-05-02T12:29:57.677Z,13.59
2019-05-02T12:30:56.553Z,13.65
2019-05-02T12:31:56.578Z,13.73
2019-05-02T12:32:56.520Z,13.73
2019-05-02T12:33:56.511Z,13.69
2019-05-02T12:34:56.519Z,13.61
2019-05-02T12:35:56.501Z,13.50
2019-05-02T12:36:56.468Z,13.28
2019-05-02T12:37:56.460Z,13.14
2019-05-02T12:38:57.691Z,13.13
2019-05-02T12:39:56.453Z,13.14
2019-05-02T12:40:58.014Z,13.12
2019-05-02T12:41:56.713Z,13.07
2019-05-02T12:42:56.408Z,13.04
2019-05-02T12:43:56.407Z,13.07
2019-05-02T12:44:56.418Z,13.13
2019-05-02T12:45:56.390Z,13.13
2019-05-02T12:46:56.367Z,13.16
2019-05-02T12:47:56.356Z,13.17
2019-05-02T12:48:56.347Z,13.16
2019-05-02T12:49:56.365Z,13.12
2019-05-02T12:50:56.357Z,13.06
2019-05-02T12:51:56.313Z,13.09
2019-05-02T12:52:56.351Z,12.96
2019-05-02T12:53:56.292Z,12.98
2019-05-02T12:54:56.343Z,13.10
2019-05-02T12:55:56.285Z,13.22
2019-05-02T12:56:56.857Z,13.25
2019-05-02T12:57:56.254Z,13.22
2019-05-02T12:58:56.241Z,13.28
2019-05-02T12:59:56.223Z,13.41
2019-05-02T13:00:56.230Z,13.41
2019-05-02T13:01:56.232Z,13.44
2019-05-02T13:02:56.212Z,13.43
2019-05-02T13:03:56.213Z,13.41
2019-05-02T13:04:56.182Z,13.51
2019-05-02T13:05:56.946Z,13.66